• Join FlightAware (Why Join?)
  • Login
  • US Flag 
09:07PM EDT


 

Airport Tracker/Info


-or-


 

Live Flight TrackerFlight Track Log ✈ UAL4678 ✈ 22-Apr-2013 ✈ KIAH - KMOB

Flight Track Log - Related Links

Times and Time Zones

All times are in EDT time to prevent confusion due to time zone crossing. See the UAL4678 flight status page for this flight to view local times or setup timezone preferences in your user account.

Time Position Orientation Groundspeed Altitude Reporting Facility
EDT Latitude Longitude Course Direction KTS MPH feet Rate Location/Type
12:39PM 29.9617 -95.3436 95° East 167 192 700  Level Houston Center
12:40PM 29.9494 -95.2558 99° East 236 272 3,400 1,920 Climbing Houston Center
12:41PM 29.9492 -95.2289 91° East 223 257 4,200 2,460 Climbing Houston Center
12:41PM 29.9428 -95.1625 96° East 261 300 6,200 2,460 Climbing Houston Center
12:42PM 29.9254 -94.9452 97° East  Level FlightAware Approximate
12:42PM 29.9422 -95.1453 92° East 250 288 6,800  Level Houston Center
12:42PM 29.9353 -95.0814 97° East 276 318 8,400 2,100 Climbing Houston Center
12:43PM 29.9124 -94.8147 95° East  Level FlightAware Approximate
12:43PM 29.9331 -95.0553 96° East 273 314 9,000  Level Houston Center
12:44PM 29.9015 -94.6840 95° East  Level FlightAware Approximate
12:44PM 29.9233 -94.9603 97° East 294 338 10,800  Level Houston Center
12:45PM 29.9133 -94.8506 96° East 336 387 11,900 1,140 Climbing Houston Center
12:46PM 29.9033 -94.7319 96° East 367 422 13,200 1,320 Climbing Houston Center
12:47PM 29.8897 -94.6081 97° East 386 444 14,700 1,320 Climbing Houston Center
12:48PM 29.8756 -94.4547 96° East 399 459 16,000 600 Climbing Houston Center
12:49PM 29.8631 -94.3200 96° East 416 479 16,000 480 Level Houston Center
12:50PM 29.8578 -94.1825 93° East 430 495 17,000 1,200 Climbing Houston Center
12:51PM 29.8544 -94.0547 92° East 410 472 18,600 1,500 Climbing Houston Center
12:52PM 29.8664 -93.9281 84° East 400 460 20,200 1,620 Climbing Houston Center
12:53PM 29.8831 -93.7728 83° East 408 470 22,000 1,560 Climbing Houston Center
12:54PM 29.8956 -93.6447 84° East 406 467 23,500 1,260 Climbing Houston Center
12:55PM 29.9086 -93.5136 83° East 412 474 24,700 720 Climbing Houston Center
12:56PM 29.9231 -93.3781 83° East 428 493 25,000 120 Climbing Houston Center
12:57PM 29.9372 -93.2331 84° East 455 524 25,000  Level Houston Center
12:58PM 29.9556 -93.0503 83° East 479 551 25,000  Level Houston Center
12:59PM 29.9711 -92.8958 83° East 485 558 25,000  Level Houston Center
01:00PM 29.9842 -92.7419 84° East 486 559 25,000  Level Houston Center
01:01PM 29.9956 -92.5897 85° East 482 555 25,000  Level Houston Center
01:02PM 30.0075 -92.4372 85° East 480 552 25,000  Level Houston Center
01:03PM 30.0231 -92.2508 84° East 480 552 25,000  Level Houston Center
01:04PM 30.0344 -92.0997 85° East 483 556 25,000  Level Houston Center
01:05PM 30.0458 -91.9478 85° East 479 551 25,000  Level Houston Center
01:06PM 30.0572 -91.7953 85° East 479 551 25,000  Level Houston Center
01:08PM 30.0683 -91.6453 85° East 483 556 25,000  Level Houston Center
01:09PM 30.0825 -91.4603 85° East 483 556 25,000  Level Houston Center
01:10PM 30.0925 -91.3047 86° East 486 559 25,000  Level Houston Center
01:11PM 30.1039 -91.1500 85° East 486 559 25,000  Level Houston Center
01:12PM 30.1147 -90.9939 85° East 489 563 25,000  Level Houston Center
01:13PM 30.1439 -90.8422 77° East 485 558 25,000  Level Houston Center
01:14PM 30.1883 -90.6636 74° East 483 556 25,000  Level Houston Center
01:15PM 30.2258 -90.5122 74° East 487 560 25,000  Level Houston Center
01:16PM 30.2614 -90.3625 75° East 485 558 25,000 -480 Level Houston Center
01:17PM 30.2967 -90.2131 75° East 484 557 24,000 -1,020 Descending Houston Center
01:18PM 30.3319 -90.0661 74° East 477 549 22,900 -1,080 Descending Houston Center
01:19PM 30.3669 -89.9200 74° East 472 543 21,800 -960 Descending Houston Center
01:20PM 30.4044 -89.7661 74° East 474 545 21,000 -1,080 Descending Houston Center
01:21PM 30.4375 -89.6208 75° East 459 528 19,600 -1,020 Descending Houston Center
01:22PM 30.4694 -89.4811 75° East 450 518 19,000 -540 Descending Houston Center
01:23PM 30.5072 -89.3169 75° East 441 507 18,500 -1,080 Descending Houston Center
01:24PM 30.5381 -89.1819 75° East 436 502 16,800 -1,740 Descending Houston Center
01:25PM 30.5681 -89.0528 75° East 422 486 14,900 -1,980 Descending Houston Center
01:26PM 30.5983 -88.9183 75° East 400 460 12,700 -2,040 Descending Houston Center
01:27PM 30.6233 -88.8064 75° East 370 426 10,800 -1,620 Descending Houston Center
01:28PM 30.6508 -88.7094 72° East 330 380 9,400 -1,500 Descending Houston Center
01:29PM 30.6769 -88.6233 71° East 294 338 7,800 -1,620 Descending Houston Center
01:30PM 30.7006 -88.5389 72° East 280 322 6,100 -1,800 Descending Houston Center
01:31PM 30.7269 -88.4461 72° East 258 297 4,100 -1,740 Descending Houston Center
01:32PM 30.7486 -88.3703 72° East 252 290 2,600 -1,500 Descending Houston Center